Ruskin, Nebraska
Current Conditions -  °F | °C
As of 2:55 AM on Friday 31 Oct 2014 (Local Time) from KHJH Reporting Station
Overcast Overcast  
Wind Chill: 34°   Ceiling: 2300
Heat Index: 40°   Visibility: 10mi
Dew Point: 31°   Wind: 9mph
Humidity: 71%   Direction: 360°N
Pressure: 30.44"   Gusts: NA
Location:  40.14°N, 97.87°W
Report Text: KHJH 310755Z AUTO 36008KT 10SM OVC023 04/00 A3044 RMK AO2 T00431005
Loading
Personal Weather Stations






























Interactive Weather Map
Tropical Storm Tracking
New forecast layout! Learn more

10-Day Weather Forecast

Advertisements
Track Severe Weather on mobile